sensor_id;sensor_type;location;lat;lon;timestamp;P1;durP1;ratioP1;P2;durP2;ratioP2
67132;SDS011;54052;53.542;49.408;2023-01-31T00:01:24;64.78;;;40.17;;
67132;SDS011;54052;53.542;49.408;2023-01-31T00:03:55;62.97;;;39.92;;
67132;SDS011;54052;53.542;49.408;2023-01-31T00:06:25;62.72;;;41.25;;
67132;SDS011;54052;53.542;49.408;2023-01-31T00:08:58;64.53;;;40.00;;
67132;SDS011;54052;53.542;49.408;2023-01-31T00:11:26;62.97;;;39.58;;
67132;SDS011;54052;53.542;49.408;2023-01-31T00:13:54;61.13;;;38.22;;
67132;SDS011;54052;53.542;49.408;2023-01-31T00:16:22;67.15;;;37.53;;
67132;SDS011;54052;53.542;49.408;2023-01-31T00:18:48;62.03;;;40.20;;
67132;SDS011;54052;53.542;49.408;2023-01-31T00:21:16;66.05;;;39.83;;
67132;SDS011;54052;53.542;49.408;2023-01-31T00:23:44;66.88;;;41.30;;
67132;SDS011;54052;53.542;49.408;2023-01-31T00:26:15;69.00;;;39.45;;
67132;SDS011;54052;53.542;49.408;2023-01-31T00:28:44;71.50;;;40.55;;
67132;SDS011;54052;53.542;49.408;2023-01-31T00:31:12;69.45;;;41.72;;
67132;SDS011;54052;53.542;49.408;2023-01-31T00:33:41;72.35;;;39.50;;
67132;SDS011;54052;53.542;49.408;2023-01-31T00:36:09;71.20;;;38.78;;
67132;SDS011;54052;53.542;49.408;2023-01-31T00:38:37;71.00;;;39.80;;
67132;SDS011;54052;53.542;49.408;2023-01-31T00:41:04;65.47;;;39.60;;
67132;SDS011;54052;53.542;49.408;2023-01-31T00:43:31;72.63;;;39.50;;
67132;SDS011;54052;53.542;49.408;2023-01-31T00:45:57;76.50;;;40.25;;
67132;SDS011;54052;53.542;49.408;2023-01-31T00:48:24;71.00;;;38.75;;
67132;SDS011;54052;53.542;49.408;2023-01-31T00:50:50;70.65;;;38.47;;
67132;SDS011;54052;53.542;49.408;2023-01-31T00:53:16;68.95;;;40.88;;
67132;SDS011;54052;53.542;49.408;2023-01-31T00:55:55;66.70;;;38.88;;
67132;SDS011;54052;53.542;49.408;2023-01-31T00:58:27;65.30;;;37.88;;
67132;SDS011;54052;53.542;49.408;2023-01-31T01:00:53;70.78;;;38.42;;
67132;SDS011;54052;53.542;49.408;2023-01-31T01:03:19;73.18;;;39.08;;
67132;SDS011;54052;53.542;49.408;2023-01-31T01:05:46;65.50;;;39.60;;
67132;SDS011;54052;53.542;49.408;2023-01-31T01:08:12;65.50;;;39.03;;
67132;SDS011;54052;53.542;49.408;2023-01-31T01:10:38;58.38;;;35.80;;
67132;SDS011;54052;53.542;49.408;2023-01-31T01:13:05;71.18;;;37.47;;
67132;SDS011;54052;53.542;49.408;2023-01-31T01:15:31;61.58;;;36.97;;
67132;SDS011;54052;53.542;49.408;2023-01-31T01:17:57;64.18;;;37.17;;
67132;SDS011;54052;53.542;49.408;2023-01-31T01:20:24;61.55;;;37.55;;
67132;SDS011;54052;53.542;49.408;2023-01-31T01:22:50;58.85;;;36.63;;
67132;SDS011;54052;53.542;49.408;2023-01-31T01:25:16;56.30;;;36.08;;
67132;SDS011;54052;53.542;49.408;2023-01-31T01:27:42;60.55;;;36.92;;
67132;SDS011;54052;53.542;49.408;2023-01-31T01:30:09;58.83;;;36.58;;
67132;SDS011;54052;53.542;49.408;2023-01-31T01:32:36;57.67;;;36.38;;
67132;SDS011;54052;53.542;49.408;2023-01-31T01:35:03;56.47;;;35.05;;
67132;SDS011;54052;53.542;49.408;2023-01-31T01:37:29;55.97;;;36.58;;
67132;SDS011;54052;53.542;49.408;2023-01-31T01:39:56;62.40;;;36.58;;
67132;SDS011;54052;53.542;49.408;2023-01-31T01:42:23;61.50;;;38.80;;
67132;SDS011;54052;53.542;49.408;2023-01-31T01:44:57;63.63;;;36.53;;
67132;SDS011;54052;53.542;49.408;2023-01-31T01:47:30;68.50;;;38.78;;
67132;SDS011;54052;53.542;49.408;2023-01-31T01:50:22;64.93;;;40.10;;
67132;SDS011;54052;53.542;49.408;2023-01-31T01:53:02;61.17;;;40.00;;
67132;SDS011;54052;53.542;49.408;2023-01-31T01:55:37;65.55;;;38.17;;
67132;SDS011;54052;53.542;49.408;2023-01-31T01:58:17;61.92;;;38.38;;
67132;SDS011;54052;53.542;49.408;2023-01-31T02:00:56;60.53;;;38.50;;
67132;SDS011;54052;53.542;49.408;2023-01-31T02:03:23;65.30;;;37.17;;
67132;SDS011;54052;53.542;49.408;2023-01-31T02:05:51;63.58;;;37.65;;
67132;SDS011;54052;53.542;49.408;2023-01-31T02:08:20;57.17;;;35.40;;
67132;SDS011;54052;53.542;49.408;2023-01-31T02:10:52;63.85;;;35.85;;
67132;SDS011;54052;53.542;49.408;2023-01-31T02:13:27;61.95;;;37.75;;
67132;SDS011;54052;53.542;49.408;2023-01-31T02:15:55;58.22;;;36.78;;
67132;SDS011;54052;53.542;49.408;2023-01-31T02:18:22;69.82;;;39.92;;
67132;SDS011;54052;53.542;49.408;2023-01-31T02:21:02;68.28;;;38.80;;
67132;SDS011;54052;53.542;49.408;2023-01-31T02:43:05;64.90;;;43.10;;
67132;SDS011;54052;53.542;49.408;2023-01-31T02:45:46;60.75;;;40.78;;
67132;SDS011;54052;53.542;49.408;2023-01-31T02:48:36;60.42;;;37.92;;
67132;SDS011;54052;53.542;49.408;2023-01-31T02:51:22;64.95;;;42.03;;
67132;SDS011;54052;53.542;49.408;2023-01-31T02:56:31;60.72;;;39.65;;
67132;SDS011;54052;53.542;49.408;2023-01-31T02:59:01;59.03;;;39.05;;
67132;SDS011;54052;53.542;49.408;2023-01-31T03:01:31;60.78;;;40.67;;
67132;SDS011;54052;53.542;49.408;2023-01-31T03:04:05;68.03;;;37.85;;
67132;SDS011;54052;53.542;49.408;2023-01-31T03:14:28;61.60;;;39.90;;
67132;SDS011;54052;53.542;49.408;2023-01-31T03:22:30;67.30;;;45.72;;
67132;SDS011;54052;53.542;49.408;2023-01-31T03:25:00;62.97;;;41.20;;
67132;SDS011;54052;53.542;49.408;2023-01-31T03:27:28;65.03;;;41.15;;
67132;SDS011;54052;53.542;49.408;2023-01-31T03:29:55;67.55;;;39.90;;
67132;SDS011;54052;53.542;49.408;2023-01-31T03:32:31;68.03;;;40.83;;
67132;SDS011;54052;53.542;49.408;2023-01-31T03:35:03;69.28;;;40.72;;
67132;SDS011;54052;53.542;49.408;2023-01-31T03:47:58;67.50;;;39.83;;
67132;SDS011;54052;53.542;49.408;2023-01-31T03:50:34;57.25;;;37.75;;
67132;SDS011;54052;53.542;49.408;2023-01-31T03:55:41;63.75;;;37.67;;
67132;SDS011;54052;53.542;49.408;2023-01-31T03:58:11;61.47;;;37.88;;
67132;SDS011;54052;53.542;49.408;2023-01-31T04:00:40;63.47;;;37.28;;
67132;SDS011;54052;53.542;49.408;2023-01-31T04:03:27;64.90;;;39.38;;
67132;SDS011;54052;53.542;49.408;2023-01-31T04:06:06;60.53;;;37.47;;
67132;SDS011;54052;53.542;49.408;2023-01-31T04:08:34;64.15;;;37.05;;
67132;SDS011;54052;53.542;49.408;2023-01-31T04:11:04;62.53;;;35.97;;
67132;SDS011;54052;53.542;49.408;2023-01-31T04:13:33;57.22;;;35.85;;
67132;SDS011;54052;53.542;49.408;2023-01-31T04:16:00;64.55;;;37.97;;
67132;SDS011;54052;53.542;49.408;2023-01-31T04:18:27;67.75;;;38.70;;
67132;SDS011;54052;53.542;49.408;2023-01-31T04:20:53;62.17;;;36.63;;
67132;SDS011;54052;53.542;49.408;2023-01-31T04:23:19;56.92;;;36.83;;
67132;SDS011;54052;53.542;49.408;2023-01-31T04:25:45;58.05;;;34.50;;
67132;SDS011;54052;53.542;49.408;2023-01-31T04:28:12;57.70;;;35.47;;
67132;SDS011;54052;53.542;49.408;2023-01-31T04:30:38;61.63;;;36.20;;
67132;SDS011;54052;53.542;49.408;2023-01-31T04:33:04;65.90;;;38.47;;
67132;SDS011;54052;53.542;49.408;2023-01-31T04:35:30;58.05;;;35.13;;
67132;SDS011;54052;53.542;49.408;2023-01-31T04:37:58;65.60;;;36.65;;
67132;SDS011;54052;53.542;49.408;2023-01-31T04:40:25;58.00;;;37.17;;
67132;SDS011;54052;53.542;49.408;2023-01-31T04:42:51;58.40;;;34.33;;
67132;SDS011;54052;53.542;49.408;2023-01-31T04:45:17;55.53;;;34.00;;
67132;SDS011;54052;53.542;49.408;2023-01-31T04:47:44;65.80;;;34.90;;
67132;SDS011;54052;53.542;49.408;2023-01-31T04:50:10;58.85;;;35.58;;
67132;SDS011;54052;53.542;49.408;2023-01-31T04:52:36;58.83;;;34.50;;
67132;SDS011;54052;53.542;49.408;2023-01-31T04:55:03;55.97;;;33.65;;
67132;SDS011;54052;53.542;49.408;2023-01-31T04:57:29;51.72;;;31.48;;
67132;SDS011;54052;53.542;49.408;2023-01-31T04:59:55;51.63;;;33.22;;
67132;SDS011;54052;53.542;49.408;2023-01-31T05:02:22;53.67;;;32.35;;
67132;SDS011;54052;53.542;49.408;2023-01-31T05:04:48;60.20;;;34.72;;
67132;SDS011;54052;53.542;49.408;2023-01-31T05:07:14;50.05;;;33.40;;
67132;SDS011;54052;53.542;49.408;2023-01-31T05:09:41;41.78;;;21.38;;
67132;SDS011;54052;53.542;49.408;2023-01-31T05:12:08;37.47;;;19.73;;
67132;SDS011;54052;53.542;49.408;2023-01-31T05:14:35;42.58;;;19.45;;
67132;SDS011;54052;53.542;49.408;2023-01-31T05:17:01;45.22;;;19.52;;
67132;SDS011;54052;53.542;49.408;2023-01-31T05:19:27;41.10;;;18.83;;
67132;SDS011;54052;53.542;49.408;2023-01-31T05:21:53;40.35;;;26.27;;
67132;SDS011;54052;53.542;49.408;2023-01-31T05:24:24;40.58;;;19.65;;
67132;SDS011;54052;53.542;49.408;2023-01-31T05:26:55;35.00;;;18.25;;
67132;SDS011;54052;53.542;49.408;2023-01-31T05:29:30;34.55;;;18.02;;
67132;SDS011;54052;53.542;49.408;2023-01-31T05:31:58;37.75;;;18.63;;
67132;SDS011;54052;53.542;49.408;2023-01-31T05:34:25;42.72;;;19.10;;
67132;SDS011;54052;53.542;49.408;2023-01-31T05:36:55;41.10;;;20.17;;
67132;SDS011;54052;53.542;49.408;2023-01-31T05:39:21;41.60;;;19.48;;
67132;SDS011;54052;53.542;49.408;2023-01-31T05:41:48;45.60;;;19.55;;
67132;SDS011;54052;53.542;49.408;2023-01-31T05:44:14;42.08;;;19.58;;
67132;SDS011;54052;53.542;49.408;2023-01-31T05:46:40;36.35;;;18.98;;
67132;SDS011;54052;53.542;49.408;2023-01-31T05:49:07;37.67;;;19.30;;
67132;SDS011;54052;53.542;49.408;2023-01-31T05:51:35;36.83;;;19.67;;
67132;SDS011;54052;53.542;49.408;2023-01-31T05:54:01;37.70;;;18.65;;
67132;SDS011;54052;53.542;49.408;2023-01-31T05:56:28;43.80;;;19.45;;
67132;SDS011;54052;53.542;49.408;2023-01-31T05:58:54;34.33;;;17.67;;
67132;SDS011;54052;53.542;49.408;2023-01-31T06:01:22;35.72;;;17.85;;
67132;SDS011;54052;53.542;49.408;2023-01-31T06:03:50;33.05;;;17.50;;
67132;SDS011;54052;53.542;49.408;2023-01-31T06:06:17;32.58;;;17.27;;
67132;SDS011;54052;53.542;49.408;2023-01-31T06:08:44;30.75;;;17.25;;
67132;SDS011;54052;53.542;49.408;2023-01-31T06:11:10;34.13;;;16.40;;
67132;SDS011;54052;53.542;49.408;2023-01-31T06:13:38;31.40;;;17.20;;
67132;SDS011;54052;53.542;49.408;2023-01-31T06:16:05;36.55;;;17.27;;
67132;SDS011;54052;53.542;49.408;2023-01-31T06:18:31;37.22;;;16.83;;
67132;SDS011;54052;53.542;49.408;2023-01-31T06:20:58;33.15;;;15.48;;
67132;SDS011;54052;53.542;49.408;2023-01-31T06:23:24;35.78;;;16.02;;
67132;SDS011;54052;53.542;49.408;2023-01-31T06:25:51;35.15;;;18.25;;
67132;SDS011;54052;53.542;49.408;2023-01-31T06:28:18;34.17;;;17.23;;
67132;SDS011;54052;53.542;49.408;2023-01-31T06:30:44;37.15;;;16.40;;
67132;SDS011;54052;53.542;49.408;2023-01-31T06:33:11;35.38;;;17.95;;
67132;SDS011;54052;53.542;49.408;2023-01-31T06:35:38;31.38;;;17.42;;
67132;SDS011;54052;53.542;49.408;2023-01-31T06:38:04;29.00;;;16.65;;
67132;SDS011;54052;53.542;49.408;2023-01-31T06:40:31;32.17;;;16.92;;
67132;SDS011;54052;53.542;49.408;2023-01-31T06:42:58;31.08;;;17.20;;
67132;SDS011;54052;53.542;49.408;2023-01-31T06:45:24;28.70;;;16.02;;
67132;SDS011;54052;53.542;49.408;2023-01-31T06:47:51;40.92;;;17.17;;
67132;SDS011;54052;53.542;49.408;2023-01-31T06:50:17;30.98;;;16.65;;
67132;SDS011;54052;53.542;49.408;2023-01-31T06:52:43;29.20;;;16.45;;
67132;SDS011;54052;53.542;49.408;2023-01-31T06:55:10;31.10;;;15.85;;
67132;SDS011;54052;53.542;49.408;2023-01-31T06:57:44;26.75;;;15.90;;
67132;SDS011;54052;53.542;49.408;2023-01-31T07:00:14;28.63;;;14.65;;
67132;SDS011;54052;53.542;49.408;2023-01-31T07:02:41;31.58;;;17.70;;
67132;SDS011;54052;53.542;49.408;2023-01-31T07:05:07;35.70;;;17.40;;
67132;SDS011;54052;53.542;49.408;2023-01-31T07:07:34;27.48;;;16.08;;
67132;SDS011;54052;53.542;49.408;2023-01-31T07:10:00;31.05;;;16.58;;
67132;SDS011;54052;53.542;49.408;2023-01-31T07:12:27;29.38;;;16.83;;
67132;SDS011;54052;53.542;49.408;2023-01-31T07:14:53;35.55;;;18.17;;
67132;SDS011;54052;53.542;49.408;2023-01-31T07:17:19;31.73;;;16.40;;
67132;SDS011;54052;53.542;49.408;2023-01-31T07:19:46;30.05;;;16.83;;
67132;SDS011;54052;53.542;49.408;2023-01-31T07:22:12;33.25;;;16.25;;
67132;SDS011;54052;53.542;49.408;2023-01-31T07:24:38;34.65;;;17.77;;
67132;SDS011;54052;53.542;49.408;2023-01-31T07:27:05;35.25;;;15.73;;
67132;SDS011;54052;53.542;49.408;2023-01-31T07:29:31;33.25;;;17.02;;
67132;SDS011;54052;53.542;49.408;2023-01-31T07:31:57;33.05;;;17.42;;
67132;SDS011;54052;53.542;49.408;2023-01-31T07:34:24;32.75;;;16.92;;
67132;SDS011;54052;53.542;49.408;2023-01-31T07:36:51;37.65;;;17.23;;
67132;SDS011;54052;53.542;49.408;2023-01-31T07:39:17;28.48;;;16.08;;
67132;SDS011;54052;53.542;49.408;2023-01-31T07:41:44;32.75;;;15.65;;
67132;SDS011;54052;53.542;49.408;2023-01-31T07:44:10;33.53;;;15.15;;
67132;SDS011;54052;53.542;49.408;2023-01-31T07:46:36;30.90;;;16.90;;
67132;SDS011;54052;53.542;49.408;2023-01-31T07:49:03;34.72;;;16.02;;
67132;SDS011;54052;53.542;49.408;2023-01-31T07:51:29;29.15;;;16.10;;
67132;SDS011;54052;53.542;49.408;2023-01-31T07:53:55;29.98;;;15.02;;
67132;SDS011;54052;53.542;49.408;2023-01-31T07:56:22;27.67;;;15.18;;
67132;SDS011;54052;53.542;49.408;2023-01-31T07:58:49;29.70;;;15.93;;
67132;SDS011;54052;53.542;49.408;2023-01-31T08:04:01;35.88;;;16.02;;
67132;SDS011;54052;53.542;49.408;2023-01-31T08:06:28;34.28;;;15.10;;
67132;SDS011;54052;53.542;49.408;2023-01-31T08:08:56;31.15;;;15.35;;
67132;SDS011;54052;53.542;49.408;2023-01-31T08:11:23;31.95;;;14.65;;
67132;SDS011;54052;53.542;49.408;2023-01-31T08:13:49;29.15;;;14.85;;
67132;SDS011;54052;53.542;49.408;2023-01-31T08:16:15;30.17;;;16.65;;
67132;SDS011;54052;53.542;49.408;2023-01-31T08:18:42;29.38;;;14.35;;
67132;SDS011;54052;53.542;49.408;2023-01-31T08:21:09;24.65;;;14.50;;
67132;SDS011;54052;53.542;49.408;2023-01-31T08:23:37;29.98;;;14.40;;
67132;SDS011;54052;53.542;49.408;2023-01-31T08:26:15;25.35;;;13.05;;
67132;SDS011;54052;53.542;49.408;2023-01-31T08:28:44;28.27;;;14.15;;
67132;SDS011;54052;53.542;49.408;2023-01-31T08:31:18;26.60;;;13.25;;
67132;SDS011;54052;53.542;49.408;2023-01-31T08:33:48;26.52;;;14.05;;
67132;SDS011;54052;53.542;49.408;2023-01-31T08:36:18;22.77;;;12.50;;
67132;SDS011;54052;53.542;49.408;2023-01-31T08:38:46;32.35;;;13.95;;
67132;SDS011;54052;53.542;49.408;2023-01-31T08:41:14;25.33;;;12.32;;
67132;SDS011;54052;53.542;49.408;2023-01-31T08:43:43;22.73;;;13.07;;
67132;SDS011;54052;53.542;49.408;2023-01-31T08:46:10;23.75;;;13.00;;
67132;SDS011;54052;53.542;49.408;2023-01-31T08:48:37;25.55;;;12.48;;
67132;SDS011;54052;53.542;49.408;2023-01-31T08:51:05;30.30;;;14.35;;
67132;SDS011;54052;53.542;49.408;2023-01-31T08:53:33;26.77;;;13.48;;
67132;SDS011;54052;53.542;49.408;2023-01-31T08:56:02;23.48;;;13.10;;
67132;SDS011;54052;53.542;49.408;2023-01-31T08:58:30;26.98;;;12.93;;
67132;SDS011;54052;53.542;49.408;2023-01-31T09:01:05;22.48;;;13.20;;
67132;SDS011;54052;53.542;49.408;2023-01-31T09:03:33;27.85;;;14.15;;
67132;SDS011;54052;53.542;49.408;2023-01-31T09:05:59;28.27;;;14.15;;
67132;SDS011;54052;53.542;49.408;2023-01-31T09:08:30;23.65;;;14.02;;
67132;SDS011;54052;53.542;49.408;2023-01-31T09:10:57;22.15;;;13.25;;
67132;SDS011;54052;53.542;49.408;2023-01-31T09:13:27;29.30;;;14.27;;
67132;SDS011;54052;53.542;49.408;2023-01-31T09:15:58;27.25;;;14.43;;
67132;SDS011;54052;53.542;49.408;2023-01-31T09:18:24;37.65;;;14.43;;
67132;SDS011;54052;53.542;49.408;2023-01-31T09:20:51;27.83;;;14.50;;
67132;SDS011;54052;53.542;49.408;2023-01-31T09:23:18;25.83;;;13.93;;
67132;SDS011;54052;53.542;49.408;2023-01-31T09:25:54;28.20;;;15.00;;
67132;SDS011;54052;53.542;49.408;2023-01-31T09:28:21;21.25;;;12.25;;
67132;SDS011;54052;53.542;49.408;2023-01-31T09:30:48;26.10;;;12.70;;
67132;SDS011;54052;53.542;49.408;2023-01-31T09:33:18;24.38;;;14.20;;
67132;SDS011;54052;53.542;49.408;2023-01-31T09:35:58;30.33;;;20.27;;
67132;SDS011;54052;53.542;49.408;2023-01-31T09:38:29;32.08;;;20.77;;
67132;SDS011;54052;53.542;49.408;2023-01-31T09:40:55;29.25;;;20.50;;
67132;SDS011;54052;53.542;49.408;2023-01-31T09:43:26;33.00;;;20.95;;
67132;SDS011;54052;53.542;49.408;2023-01-31T09:45:58;31.02;;;20.92;;
67132;SDS011;54052;53.542;49.408;2023-01-31T09:48:29;36.25;;;19.65;;
67132;SDS011;54052;53.542;49.408;2023-01-31T09:51:00;33.72;;;21.85;;
67132;SDS011;54052;53.542;49.408;2023-01-31T09:53:29;33.78;;;19.98;;
67132;SDS011;54052;53.542;49.408;2023-01-31T10:01:23;41.25;;;21.85;;
67132;SDS011;54052;53.542;49.408;2023-01-31T10:09:09;30.52;;;21.63;;
67132;SDS011;54052;53.542;49.408;2023-01-31T10:11:57;29.92;;;20.77;;
67132;SDS011;54052;53.542;49.408;2023-01-31T10:14:46;35.13;;;20.50;;
67132;SDS011;54052;53.542;49.408;2023-01-31T10:17:23;31.45;;;21.10;;
67132;SDS011;54052;53.542;49.408;2023-01-31T10:20:07;41.97;;;27.40;;
67132;SDS011;54052;53.542;49.408;2023-01-31T10:25:31;36.92;;;28.30;;
67132;SDS011;54052;53.542;49.408;2023-01-31T10:28:22;32.08;;;22.48;;
67132;SDS011;54052;53.542;49.408;2023-01-31T10:36:13;28.60;;;19.38;;
67132;SDS011;54052;53.542;49.408;2023-01-31T10:38:57;29.25;;;19.23;;
67132;SDS011;54052;53.542;49.408;2023-01-31T10:41:46;32.72;;;19.58;;
67132;SDS011;54052;53.542;49.408;2023-01-31T10:44:39;32.83;;;19.70;;
67132;SDS011;54052;53.542;49.408;2023-01-31T10:47:15;30.95;;;21.75;;
67132;SDS011;54052;53.542;49.408;2023-01-31T10:49:45;38.40;;;21.77;;
67132;SDS011;54052;53.542;49.408;2023-01-31T10:52:15;37.65;;;22.02;;
67132;SDS011;54052;53.542;49.408;2023-01-31T10:57:32;35.05;;;22.08;;
67132;SDS011;54052;53.542;49.408;2023-01-31T10:59:58;33.58;;;21.88;;
67132;SDS011;54052;53.542;49.408;2023-01-31T11:02:25;38.42;;;21.92;;
67132;SDS011;54052;53.542;49.408;2023-01-31T11:04:54;33.38;;;21.15;;
67132;SDS011;54052;53.542;49.408;2023-01-31T11:07:23;34.05;;;19.80;;
67132;SDS011;54052;53.542;49.408;2023-01-31T11:09:53;35.20;;;21.23;;
67132;SDS011;54052;53.542;49.408;2023-01-31T11:12:21;35.72;;;19.70;;
67132;SDS011;54052;53.542;49.408;2023-01-31T11:15:05;34.45;;;21.55;;
67132;SDS011;54052;53.542;49.408;2023-01-31T11:17:39;32.28;;;21.48;;
67132;SDS011;54052;53.542;49.408;2023-01-31T11:20:17;32.80;;;23.13;;
67132;SDS011;54052;53.542;49.408;2023-01-31T11:22:53;32.80;;;23.25;;
67132;SDS011;54052;53.542;49.408;2023-01-31T11:25:21;30.92;;;13.95;;
67132;SDS011;54052;53.542;49.408;2023-01-31T11:27:51;27.27;;;14.30;;
67132;SDS011;54052;53.542;49.408;2023-01-31T11:30:30;24.85;;;13.13;;
67132;SDS011;54052;53.542;49.408;2023-01-31T11:32:59;28.92;;;12.45;;
67132;SDS011;54052;53.542;49.408;2023-01-31T11:35:27;27.63;;;12.35;;
67132;SDS011;54052;53.542;49.408;2023-01-31T11:40:36;27.17;;;13.90;;
67132;SDS011;54052;53.542;49.408;2023-01-31T11:43:25;21.13;;;12.35;;
67132;SDS011;54052;53.542;49.408;2023-01-31T11:48:29;31.58;;;12.77;;
67132;SDS011;54052;53.542;49.408;2023-01-31T11:51:04;23.48;;;12.35;;
67132;SDS011;54052;53.542;49.408;2023-01-31T11:56:12;28.30;;;12.85;;
67132;SDS011;54052;53.542;49.408;2023-01-31T11:58:41;25.08;;;12.50;;
67132;SDS011;54052;53.542;49.408;2023-01-31T12:01:15;28.15;;;13.15;;
67132;SDS011;54052;53.542;49.408;2023-01-31T12:03:47;29.17;;;12.15;;
67132;SDS011;54052;53.542;49.408;2023-01-31T12:08:55;28.13;;;14.57;;
67132;SDS011;54052;53.542;49.408;2023-01-31T12:11:30;24.83;;;14.05;;
67132;SDS011;54052;53.542;49.408;2023-01-31T12:16:36;36.08;;;16.88;;
67132;SDS011;54052;53.542;49.408;2023-01-31T12:33:14;34.60;;;17.67;;
67132;SDS011;54052;53.542;49.408;2023-01-31T12:41:39;34.75;;;17.20;;
67132;SDS011;54052;53.542;49.408;2023-01-31T12:47:14;46.75;;;16.45;;
67132;SDS011;54052;53.542;49.408;2023-01-31T12:50:29;30.35;;;16.20;;
67132;SDS011;54052;53.542;49.408;2023-01-31T12:53:19;27.70;;;14.93;;
67132;SDS011;54052;53.542;49.408;2023-01-31T13:06:36;27.73;;;14.65;;
67132;SDS011;54052;53.542;49.408;2023-01-31T13:12:06;29.55;;;15.60;;
67132;SDS011;54052;53.542;49.408;2023-01-31T13:14:38;29.77;;;15.57;;
67132;SDS011;54052;53.542;49.408;2023-01-31T13:17:11;27.92;;;15.43;;
67132;SDS011;54052;53.542;49.408;2023-01-31T13:20:20;28.40;;;15.55;;
67132;SDS011;54052;53.542;49.408;2023-01-31T13:22:58;35.28;;;15.63;;
67132;SDS011;54052;53.542;49.408;2023-01-31T13:25:36;30.83;;;15.65;;
67132;SDS011;54052;53.542;49.408;2023-01-31T13:28:15;27.58;;;15.65;;
67132;SDS011;54052;53.542;49.408;2023-01-31T13:39:13;39.20;;;25.08;;
67132;SDS011;54052;53.542;49.408;2023-01-31T13:41:51;39.97;;;24.52;;
67132;SDS011;54052;53.542;49.408;2023-01-31T13:44:18;41.67;;;28.10;;
67132;SDS011;54052;53.542;49.408;2023-01-31T13:49:40;38.90;;;25.20;;
67132;SDS011;54052;53.542;49.408;2023-01-31T13:55:08;37.35;;;24.77;;
67132;SDS011;54052;53.542;49.408;2023-01-31T13:57:40;37.63;;;24.98;;
67132;SDS011;54052;53.542;49.408;2023-01-31T14:03:10;39.55;;;26.25;;
67132;SDS011;54052;53.542;49.408;2023-01-31T14:13:39;40.28;;;26.52;;
67132;SDS011;54052;53.542;49.408;2023-01-31T14:19:07;35.47;;;22.65;;
67132;SDS011;54052;53.542;49.408;2023-01-31T14:22:04;44.53;;;25.38;;
67132;SDS011;54052;53.542;49.408;2023-01-31T14:27:28;43.17;;;25.20;;
67132;SDS011;54052;53.542;49.408;2023-01-31T14:35:01;40.50;;;22.65;;
67132;SDS011;54052;53.542;49.408;2023-01-31T14:46:34;38.97;;;24.88;;
67132;SDS011;54052;53.542;49.408;2023-01-31T14:59:27;35.72;;;22.95;;
67132;SDS011;54052;53.542;49.408;2023-01-31T15:01:58;37.13;;;21.58;;
67132;SDS011;54052;53.542;49.408;2023-01-31T15:04:27;32.42;;;21.58;;
67132;SDS011;54052;53.542;49.408;2023-01-31T15:06:54;32.65;;;20.88;;
67132;SDS011;54052;53.542;49.408;2023-01-31T15:11:51;36.78;;;22.98;;
67132;SDS011;54052;53.542;49.408;2023-01-31T15:14:26;37.72;;;23.50;;
67132;SDS011;54052;53.542;49.408;2023-01-31T15:17:02;36.78;;;22.30;;
67132;SDS011;54052;53.542;49.408;2023-01-31T15:19:41;38.38;;;21.55;;
67132;SDS011;54052;53.542;49.408;2023-01-31T15:22:20;31.75;;;21.27;;
67132;SDS011;54052;53.542;49.408;2023-01-31T15:24:51;27.92;;;19.63;;
67132;SDS011;54052;53.542;49.408;2023-01-31T15:27:25;35.30;;;21.65;;
67132;SDS011;54052;53.542;49.408;2023-01-31T15:35:24;29.83;;;18.38;;
67132;SDS011;54052;53.542;49.408;2023-01-31T15:38:05;30.40;;;19.15;;
67132;SDS011;54052;53.542;49.408;2023-01-31T15:40:47;31.95;;;20.90;;
67132;SDS011;54052;53.542;49.408;2023-01-31T15:43:40;31.80;;;20.55;;
67132;SDS011;54052;53.542;49.408;2023-01-31T15:46:23;34.20;;;23.17;;
67132;SDS011;54052;53.542;49.408;2023-01-31T15:48:54;29.42;;;19.13;;
67132;SDS011;54052;53.542;49.408;2023-01-31T15:51:21;32.78;;;23.20;;
67132;SDS011;54052;53.542;49.408;2023-01-31T15:53:47;27.15;;;19.30;;
67132;SDS011;54052;53.542;49.408;2023-01-31T15:56:24;28.02;;;19.25;;
67132;SDS011;54052;53.542;49.408;2023-01-31T15:58:53;29.98;;;20.48;;
67132;SDS011;54052;53.542;49.408;2023-01-31T16:01:21;29.33;;;20.35;;
67132;SDS011;54052;53.542;49.408;2023-01-31T16:03:48;32.10;;;22.30;;
67132;SDS011;54052;53.542;49.408;2023-01-31T16:06:28;32.85;;;21.40;;
67132;SDS011;54052;53.542;49.408;2023-01-31T16:08:59;26.42;;;18.30;;
67132;SDS011;54052;53.542;49.408;2023-01-31T16:11:26;29.27;;;19.02;;
67132;SDS011;54052;53.542;49.408;2023-01-31T16:13:58;30.35;;;18.55;;
67132;SDS011;54052;53.542;49.408;2023-01-31T16:16:32;31.90;;;19.13;;
67132;SDS011;54052;53.542;49.408;2023-01-31T16:18:59;31.23;;;18.85;;
67132;SDS011;54052;53.542;49.408;2023-01-31T16:21:42;30.48;;;20.33;;
67132;SDS011;54052;53.542;49.408;2023-01-31T16:26:36;28.10;;;18.35;;
67132;SDS011;54052;53.542;49.408;2023-01-31T16:29:08;28.90;;;18.77;;
67132;SDS011;54052;53.542;49.408;2023-01-31T16:31:46;27.73;;;17.30;;
67132;SDS011;54052;53.542;49.408;2023-01-31T16:34:28;27.13;;;17.70;;
67132;SDS011;54052;53.542;49.408;2023-01-31T16:39:40;28.40;;;18.80;;
67132;SDS011;54052;53.542;49.408;2023-01-31T16:44:45;27.35;;;17.80;;
67132;SDS011;54052;53.542;49.408;2023-01-31T16:58:46;29.95;;;17.35;;
67132;SDS011;54052;53.542;49.408;2023-01-31T17:01:16;24.48;;;17.02;;
67132;SDS011;54052;53.542;49.408;2023-01-31T17:03:58;26.17;;;18.13;;
67132;SDS011;54052;53.542;49.408;2023-01-31T17:06:27;27.35;;;19.05;;
67132;SDS011;54052;53.542;49.408;2023-01-31T17:08:54;23.60;;;16.38;;
67132;SDS011;54052;53.542;49.408;2023-01-31T17:11:21;26.48;;;16.08;;
67132;SDS011;54052;53.542;49.408;2023-01-31T17:13:48;24.00;;;16.70;;
67132;SDS011;54052;53.542;49.408;2023-01-31T17:16:15;21.20;;;15.75;;
67132;SDS011;54052;53.542;49.408;2023-01-31T17:18:52;21.70;;;15.57;;
67132;SDS011;54052;53.542;49.408;2023-01-31T17:21:23;25.63;;;15.93;;
67132;SDS011;54052;53.542;49.408;2023-01-31T17:23:51;27.85;;;17.17;;
67132;SDS011;54052;53.542;49.408;2023-01-31T17:26:19;24.65;;;15.63;;
67132;SDS011;54052;53.542;49.408;2023-01-31T17:28:47;24.48;;;15.85;;
67132;SDS011;54052;53.542;49.408;2023-01-31T17:31:21;24.23;;;15.90;;
67132;SDS011;54052;53.542;49.408;2023-01-31T17:33:50;21.30;;;14.90;;
67132;SDS011;54052;53.542;49.408;2023-01-31T17:36:17;30.80;;;16.38;;
67132;SDS011;54052;53.542;49.408;2023-01-31T17:38:43;22.73;;;14.70;;
67132;SDS011;54052;53.542;49.408;2023-01-31T17:41:16;21.88;;;14.88;;
67132;SDS011;54052;53.542;49.408;2023-01-31T17:43:44;22.60;;;14.55;;
67132;SDS011;54052;53.542;49.408;2023-01-31T17:46:11;23.27;;;15.45;;
67132;SDS011;54052;53.542;49.408;2023-01-31T17:48:40;24.45;;;15.45;;
67132;SDS011;54052;53.542;49.408;2023-01-31T17:51:07;24.70;;;15.52;;
67132;SDS011;54052;53.542;49.408;2023-01-31T17:53:33;23.10;;;14.85;;